createdAt,value
2018-04-08T00:01:16.696Z,99.90
2018-04-08T00:03:44.285Z,99.90
2018-04-08T00:06:11.137Z,99.90
2018-04-08T00:08:37.864Z,99.90
2018-04-08T00:11:04.735Z,99.90
2018-04-08T00:13:32.296Z,99.90
2018-04-08T00:15:59.020Z,99.90
2018-04-08T00:18:28.554Z,99.90
2018-04-08T00:20:55.808Z,99.90
2018-04-08T00:23:24.866Z,99.90
2018-04-08T00:25:52.565Z,99.90
2018-04-08T00:28:20.170Z,99.90
2018-04-08T00:30:48.375Z,99.90
2018-04-08T00:33:16.727Z,99.90
2018-04-08T00:35:44.918Z,99.90
2018-04-08T00:38:12.045Z,99.90
2018-04-08T00:40:39.986Z,99.90
2018-04-08T00:43:08.189Z,99.90
2018-04-08T00:45:36.103Z,99.90
2018-04-08T00:48:05.730Z,99.90
2018-04-08T00:50:34.289Z,99.90
2018-04-08T00:53:03.630Z,99.90
2018-04-08T00:55:31.006Z,99.90
2018-04-08T00:58:01.059Z,99.90
2018-04-08T01:00:28.886Z,99.90
2018-04-08T01:02:55.906Z,99.90
2018-04-08T01:05:23.466Z,99.90
2018-04-08T01:07:50.296Z,99.90
2018-04-08T01:10:20.148Z,99.90
2018-04-08T01:12:47.584Z,99.90
2018-04-08T01:15:16.722Z,99.90
2018-04-08T01:17:43.964Z,99.90
2018-04-08T01:20:11.958Z,99.90
2018-04-08T01:22:40.071Z,99.90
2018-04-08T01:25:07.155Z,99.90
2018-04-08T01:27:33.850Z,99.90
2018-04-08T01:30:01.698Z,99.90
2018-04-08T01:32:28.363Z,99.90
2018-04-08T01:34:58.220Z,99.90
2018-04-08T01:37:25.366Z,99.90
2018-04-08T01:39:54.813Z,99.90
2018-04-08T01:42:21.762Z,99.90
2018-04-08T01:44:49.429Z,99.90
2018-04-08T01:47:16.151Z,99.90
2018-04-08T01:49:42.913Z,99.90
2018-04-08T01:52:09.887Z,99.90
2018-04-08T01:54:37.305Z,99.90
2018-04-08T01:57:04.826Z,99.90
2018-04-08T01:59:32.309Z,99.90
2018-04-08T02:01:59.723Z,99.90
2018-04-08T02:04:26.800Z,99.90
2018-04-08T02:06:54.524Z,99.90
2018-04-08T02:09:21.270Z,99.90
2018-04-08T02:11:48.426Z,99.90
2018-04-08T02:14:15.694Z,99.90
2018-04-08T02:16:43.148Z,99.90
2018-04-08T02:19:11.328Z,99.90
2018-04-08T02:21:38.824Z,99.90
2018-04-08T02:24:07.291Z,99.90
2018-04-08T02:26:35.149Z,99.90
2018-04-08T02:29:01.866Z,99.90
2018-04-08T02:31:28.592Z,99.90
2018-04-08T02:33:56.017Z,99.90
2018-04-08T02:36:23.920Z,99.90
2018-04-08T02:38:51.268Z,99.90
2018-04-08T02:41:17.982Z,99.90
2018-04-08T02:43:45.144Z,99.90
2018-04-08T02:46:12.076Z,99.90
2018-04-08T02:48:39.214Z,99.90
2018-04-08T02:51:06.946Z,99.90
2018-04-08T02:53:33.680Z,99.90
2018-04-08T02:56:00.741Z,99.90
2018-04-08T02:58:27.395Z,99.90
2018-04-08T03:00:55.114Z,99.90
2018-04-08T03:03:21.776Z,99.90
2018-04-08T03:05:48.795Z,99.90
2018-04-08T03:08:16.455Z,99.90
2018-04-08T03:10:43.242Z,99.90
2018-04-08T03:13:10.359Z,99.90
2018-04-08T03:15:37.095Z,99.90
2018-04-08T03:18:04.095Z,99.90
2018-04-08T03:20:30.948Z,99.90
2018-04-08T03:22:57.691Z,99.90
2018-04-08T03:25:24.744Z,99.90
2018-04-08T03:27:51.878Z,99.90
2018-04-08T03:30:20.091Z,99.90
2018-04-08T03:32:46.772Z,99.90
2018-04-08T03:35:13.813Z,99.90
2018-04-08T03:37:40.831Z,99.90
2018-04-08T03:40:07.557Z,99.90
2018-04-08T03:42:35.038Z,99.90
2018-04-08T03:45:01.789Z,99.90
2018-04-08T03:47:28.754Z,99.90
2018-04-08T03:49:55.755Z,99.90
2018-04-08T03:52:22.785Z,99.90
2018-04-08T03:54:49.796Z,99.90
2018-04-08T03:57:16.808Z,99.90
2018-04-08T03:59:43.568Z,99.90
2018-04-08T04:02:10.595Z,99.90
2018-04-08T04:04:37.356Z,99.90
2018-04-08T04:07:04.088Z,99.90
2018-04-08T04:09:32.323Z,99.90
2018-04-08T04:11:59.583Z,99.90
2018-04-08T04:14:26.933Z,99.90
2018-04-08T04:16:53.800Z,99.90
2018-04-08T04:19:32.949Z,99.90
2018-04-08T04:22:11.843Z,99.90
2018-04-08T04:25:01.612Z,99.90
2018-04-08T04:27:28.341Z,99.90
2018-04-08T04:29:55.353Z,99.90
2018-04-08T04:32:22.427Z,99.90
2018-04-08T04:34:49.327Z,99.90
2018-04-08T04:37:16.340Z,99.90
2018-04-08T04:39:43.273Z,99.90
2018-04-08T04:42:10.070Z,99.90
2018-04-08T04:44:37.014Z,99.90
2018-04-08T04:47:04.067Z,99.90
2018-04-08T04:49:31.730Z,99.90
2018-04-08T04:51:58.493Z,99.90
2018-04-08T04:54:25.546Z,99.90
2018-04-08T04:56:52.496Z,99.90
2018-04-08T04:59:19.343Z,99.90
2018-04-08T05:01:46.093Z,99.90
2018-04-08T05:04:13.120Z,99.90
2018-04-08T05:06:40.914Z,99.90
2018-04-08T05:09:07.954Z,99.90
2018-04-08T05:11:35.520Z,99.90
2018-04-08T05:14:02.914Z,99.90
2018-04-08T05:16:29.906Z,99.90
2018-04-08T05:18:57.544Z,99.90
2018-04-08T05:21:24.218Z,99.90
2018-04-08T05:23:51.200Z,99.90
2018-04-08T05:26:17.875Z,99.90
2018-04-08T05:28:44.869Z,99.90
2018-04-08T05:31:12.465Z,99.90
2018-04-08T05:33:39.528Z,99.90
2018-04-08T05:36:06.276Z,99.90
2018-04-08T05:38:33.023Z,99.90
2018-04-08T05:40:59.906Z,99.90
2018-04-08T05:43:27.027Z,99.90
2018-04-08T05:45:54.019Z,99.90
2018-04-08T05:48:20.793Z,99.90
2018-04-08T05:50:48.986Z,98.30
2018-04-08T05:53:15.958Z,98.30
2018-04-08T05:55:42.929Z,98.80
2018-04-08T05:58:09.923Z,99.90
2018-04-08T06:00:37.016Z,99.90
2018-04-08T06:03:03.667Z,98.20
2018-04-08T06:05:30.543Z,99.00
2018-04-08T06:07:57.690Z,95.90
2018-04-08T06:10:24.709Z,96.40
2018-04-08T06:12:51.665Z,96.20
2018-04-08T06:15:18.551Z,97.90
2018-04-08T06:17:46.186Z,98.50
2018-04-08T06:20:13.097Z,97.80
2018-04-08T06:22:39.953Z,97.00
2018-04-08T06:25:07.660Z,94.10
2018-04-08T06:27:34.440Z,95.10
2018-04-08T06:30:02.120Z,95.20
2018-04-08T06:32:29.025Z,94.80
2018-04-08T06:34:56.001Z,96.30
2018-04-08T06:37:22.706Z,95.50
2018-04-08T06:39:49.746Z,95.30
2018-04-08T06:42:17.176Z,95.00
2018-04-08T06:44:43.993Z,95.00
2018-04-08T06:47:10.993Z,95.10
2018-04-08T06:49:38.037Z,95.30
2018-04-08T06:52:04.908Z,94.70
2018-04-08T06:54:32.000Z,95.00
2018-04-08T06:56:58.921Z,95.10
2018-04-08T06:59:26.689Z,92.80
2018-04-08T07:01:53.767Z,92.80
2018-04-08T07:04:21.025Z,93.60
2018-04-08T07:06:47.995Z,91.80
2018-04-08T07:09:14.815Z,91.40
2018-04-08T07:11:41.504Z,91.00
2018-04-08T07:14:08.157Z,90.50
2018-04-08T07:16:34.840Z,90.00
2018-04-08T07:19:01.622Z,91.40
2018-04-08T07:21:28.662Z,90.50
2018-04-08T07:23:56.206Z,88.10
2018-04-08T07:26:23.586Z,85.00
2018-04-08T07:28:53.426Z,81.60
2018-04-08T07:31:22.128Z,81.60
2018-04-08T07:33:51.454Z,77.50
2018-04-08T07:36:20.062Z,77.10
2018-04-08T07:38:47.632Z,77.50
2018-04-08T07:41:14.912Z,77.50
2018-04-08T07:43:42.971Z,76.80
2018-04-08T07:46:10.781Z,76.10
2018-04-08T07:48:37.672Z,74.40
2018-04-08T07:51:05.238Z,68.00
2018-04-08T07:53:32.508Z,72.40
2018-04-08T07:56:00.208Z,72.40
2018-04-08T07:58:27.582Z,69.00
2018-04-08T08:00:54.684Z,70.60
2018-04-08T08:03:21.567Z,70.40
2018-04-08T08:05:48.280Z,71.70
2018-04-08T08:08:15.344Z,70.80
2018-04-08T08:10:42.810Z,60.50
2018-04-08T08:13:09.683Z,60.50
2018-04-08T08:15:39.037Z,61.40
2018-04-08T08:18:05.783Z,59.90
2018-04-08T08:20:32.744Z,59.10
2018-04-08T08:22:59.534Z,59.90
2018-04-08T08:25:26.264Z,59.40
2018-04-08T08:27:53.208Z,58.20
2018-04-08T08:30:21.156Z,56.60
2018-04-08T08:32:48.443Z,56.60
2018-04-08T08:35:15.128Z,59.00
2018-04-08T08:37:43.661Z,57.80
2018-04-08T08:40:11.907Z,59.60
2018-04-08T08:42:39.112Z,63.90
2018-04-08T08:45:05.984Z,57.20
2018-04-08T08:47:33.128Z,55.40
2018-04-08T08:49:59.802Z,49.20
2018-04-08T08:52:28.024Z,50.40
2018-04-08T08:54:55.045Z,51.40
2018-04-08T08:57:21.980Z,53.30
2018-04-08T08:59:49.022Z,52.80
2018-04-08T09:02:15.770Z,56.10
2018-04-08T09:04:43.345Z,55.80
2018-04-08T09:07:10.184Z,55.80
2018-04-08T09:09:37.953Z,58.50
2018-04-08T09:12:05.035Z,58.40
2018-04-08T09:14:31.763Z,57.70
2018-04-08T09:16:58.620Z,57.40
2018-04-08T09:19:46.531Z,60.00
2018-04-08T09:22:32.416Z,60.00
2018-04-08T09:25:15.638Z,62.80
2018-04-08T09:27:42.691Z,60.90
2018-04-08T09:30:09.539Z,60.10
2018-04-08T09:32:38.024Z,60.00
2018-04-08T09:35:04.863Z,59.70
2018-04-08T09:37:32.030Z,58.30
2018-04-08T09:39:59.075Z,57.40
2018-04-08T09:42:25.933Z,59.30
2018-04-08T09:44:52.661Z,59.70
2018-04-08T09:47:20.552Z,58.80
2018-04-08T09:49:48.118Z,58.80
2018-04-08T09:52:15.171Z,60.50
2018-04-08T09:54:42.019Z,61.50
2018-04-08T09:57:08.769Z,59.70
2018-04-08T09:59:35.516Z,56.50
2018-04-08T10:02:02.567Z,59.20
2018-04-08T10:04:29.288Z,59.20
2018-04-08T10:06:56.369Z,56.60
2018-04-08T10:09:23.117Z,53.90
2018-04-08T10:11:50.579Z,56.40
2018-04-08T10:14:18.246Z,56.50
2018-04-08T10:16:45.029Z,56.50
2018-04-08T10:19:12.033Z,57.90
2018-04-08T10:21:38.792Z,54.60
2018-04-08T10:24:07.352Z,56.70
2018-04-08T10:26:35.456Z,55.20
2018-04-08T10:29:02.262Z,55.20
2018-04-08T10:31:29.054Z,57.60
2018-04-08T10:33:56.312Z,56.60
2018-04-08T10:36:23.287Z,61.70
2018-04-08T10:38:50.014Z,56.40
2018-04-08T10:41:17.167Z,57.90
2018-04-08T10:43:44.424Z,56.30
2018-04-08T10:46:11.067Z,59.10
2018-04-08T10:48:38.019Z,56.20
2018-04-08T10:51:04.868Z,56.40
2018-04-08T10:53:31.507Z,58.20
2018-04-08T10:55:58.176Z,59.00
2018-04-08T10:58:25.315Z,59.20
2018-04-08T11:00:52.051Z,60.60
2018-04-08T11:03:19.217Z,58.10
2018-04-08T11:05:46.840Z,58.80
2018-04-08T11:08:13.914Z,58.80
2018-04-08T11:10:41.402Z,58.50
2018-04-08T11:13:08.556Z,58.40
2018-04-08T11:15:35.608Z,59.10
2018-04-08T11:18:02.354Z,56.80
2018-04-08T11:20:29.409Z,58.80
2018-04-08T11:22:56.157Z,58.30
2018-04-08T11:25:23.418Z,58.70
2018-04-08T11:27:51.082Z,58.30
2018-04-08T11:30:17.828Z,55.20
2018-04-08T11:32:44.984Z,54.80
2018-04-08T11:35:11.732Z,55.10
2018-04-08T11:37:38.457Z,54.30
2018-04-08T11:40:06.330Z,54.40
2018-04-08T11:42:34.120Z,57.80
2018-04-08T11:45:02.095Z,57.50
2018-04-08T11:47:28.799Z,54.90
2018-04-08T11:49:55.587Z,55.80
2018-04-08T11:52:22.337Z,55.90
2018-04-08T11:54:49.697Z,57.10
2018-04-08T11:57:17.058Z,57.10
2018-04-08T11:59:44.008Z,57.60
2018-04-08T12:02:10.738Z,54.30
2018-04-08T12:04:38.207Z,53.50
2018-04-08T12:07:05.986Z,55.00
2018-04-08T12:09:32.837Z,55.00
2018-04-08T12:11:59.584Z,56.40
2018-04-08T12:14:26.330Z,55.40
2018-04-08T12:16:53.280Z,51.70
2018-04-08T12:19:20.439Z,55.30
2018-04-08T12:21:47.593Z,54.00
2018-04-08T12:24:14.749Z,52.20
2018-04-08T12:26:42.619Z,54.30
2018-04-08T12:29:10.291Z,53.70
2018-04-08T12:31:37.341Z,53.70
2018-04-08T12:34:04.179Z,55.10
2018-04-08T12:36:31.042Z,52.50
2018-04-08T12:38:57.768Z,51.00
2018-04-08T12:41:25.460Z,54.10
2018-04-08T12:43:52.506Z,53.90
2018-04-08T12:46:20.073Z,53.90
2018-04-08T12:48:46.923Z,54.00
2018-04-08T12:51:14.796Z,51.60
2018-04-08T12:53:41.530Z,52.00
2018-04-08T12:56:09.500Z,54.30
2018-04-08T12:58:36.261Z,53.70
2018-04-08T13:01:03.420Z,53.90
2018-04-08T13:03:30.480Z,54.60
2018-04-08T13:05:57.217Z,52.30
2018-04-08T13:08:23.965Z,51.20
2018-04-08T13:10:50.852Z,52.10
2018-04-08T13:13:17.670Z,52.80
2018-04-08T13:15:45.025Z,53.70
2018-04-08T13:18:11.755Z,53.80
2018-04-08T13:20:39.224Z,51.20
2018-04-08T13:23:06.282Z,51.20
2018-04-08T13:25:33.751Z,52.60
2018-04-08T13:28:00.497Z,51.80
2018-04-08T13:30:27.145Z,51.70
2018-04-08T13:32:54.092Z,52.80
2018-04-08T13:35:21.455Z,53.20
2018-04-08T13:37:48.136Z,52.20
2018-04-08T13:40:14.947Z,52.70
2018-04-08T13:42:42.817Z,54.10
2018-04-08T13:45:09.879Z,54.00
2018-04-08T13:47:36.619Z,53.90
2018-04-08T13:50:03.469Z,56.50
2018-04-08T13:52:30.214Z,53.10
2018-04-08T13:54:57.246Z,52.50
2018-04-08T13:57:25.550Z,53.90
2018-04-08T13:59:52.605Z,54.50
2018-04-08T14:02:19.658Z,51.30
2018-04-08T14:04:46.610Z,51.90
2018-04-08T14:07:13.459Z,52.00
2018-04-08T14:09:40.615Z,52.50
2018-04-08T14:12:07.711Z,51.90
2018-04-08T14:14:34.517Z,53.60
2018-04-08T14:17:01.470Z,54.10
2018-04-08T14:19:28.506Z,54.70
2018-04-08T14:21:55.682Z,54.50
2018-04-08T14:24:23.535Z,54.80
2018-04-08T14:26:50.461Z,56.20
2018-04-08T14:29:17.553Z,56.20
2018-04-08T14:31:45.528Z,55.50
2018-04-08T14:34:12.890Z,55.80
2018-04-08T14:36:39.737Z,55.90
2018-04-08T14:39:06.792Z,55.70
2018-04-08T14:41:33.539Z,56.10
2018-04-08T14:44:00.259Z,56.40
2018-04-08T14:46:27.799Z,57.30
2018-04-08T14:48:55.006Z,57.30
2018-04-08T14:51:23.582Z,57.30
2018-04-08T14:53:50.343Z,56.70
2018-04-08T14:56:17.806Z,57.80
2018-04-08T14:58:45.475Z,56.60
2018-04-08T15:01:12.731Z,58.90
2018-04-08T15:03:39.783Z,58.20
2018-04-08T15:06:06.941Z,59.30
2018-04-08T15:08:33.893Z,58.50
2018-04-08T15:11:00.947Z,58.00
2018-04-08T15:13:29.510Z,58.40
2018-04-08T15:15:57.099Z,58.00
2018-04-08T15:18:23.951Z,57.90
2018-04-08T15:20:51.521Z,57.90
2018-04-08T15:23:18.365Z,59.00
2018-04-08T15:25:45.108Z,60.10
2018-04-08T15:28:12.165Z,58.40
2018-04-08T15:30:39.014Z,59.50
2018-04-08T15:33:06.167Z,58.90
2018-04-08T15:35:33.737Z,59.20
2018-04-08T15:38:00.583Z,59.00
2018-04-08T15:40:28.595Z,58.80
2018-04-08T15:42:55.380Z,59.60
2018-04-08T15:45:22.972Z,59.30
2018-04-08T15:47:50.230Z,59.20
2018-04-08T15:50:16.978Z,61.10
2018-04-08T15:52:44.033Z,62.80
2018-04-08T15:55:10.980Z,62.00
2018-04-08T15:57:38.435Z,62.40
2018-04-08T16:00:05.182Z,62.40
2018-04-08T16:02:32.142Z,63.40
2018-04-08T16:04:59.197Z,64.40
2018-04-08T16:07:33.002Z,64.20
2018-04-08T16:10:01.039Z,68.40
2018-04-08T16:12:27.810Z,65.00
2018-04-08T16:14:55.686Z,65.90
2018-04-08T16:17:23.162Z,67.30
2018-04-08T16:19:50.322Z,67.20
2018-04-08T16:22:17.284Z,69.00
2018-04-08T16:24:44.938Z,69.20
2018-04-08T16:27:12.093Z,69.10
2018-04-08T16:29:39.149Z,71.00
2018-04-08T16:32:06.306Z,73.20
2018-04-08T16:34:33.356Z,72.00
2018-04-08T16:37:00.194Z,72.40
2018-04-08T16:39:28.182Z,77.10
2018-04-08T16:41:55.273Z,76.20
2018-04-08T16:44:22.084Z,76.70
2018-04-08T16:46:48.829Z,78.50
2018-04-08T16:49:15.679Z,80.10
2018-04-08T16:51:42.939Z,81.20
2018-04-08T16:54:09.682Z,83.20
2018-04-08T16:56:36.429Z,84.80
2018-04-08T16:59:03.485Z,82.40
2018-04-08T17:01:30.333Z,80.10
2018-04-08T17:03:57.061Z,79.50
2018-04-08T17:06:24.459Z,83.20
2018-04-08T17:08:51.278Z,83.20
2018-04-08T17:11:18.344Z,81.40
2018-04-08T17:13:45.409Z,85.40
2018-04-08T17:16:13.166Z,86.70
2018-04-08T17:18:40.114Z,86.70
2018-04-08T17:21:07.287Z,86.20
2018-04-08T17:23:35.212Z,86.40
2018-04-08T17:26:03.000Z,87.10
2018-04-08T17:28:30.483Z,88.00
2018-04-08T17:30:57.637Z,88.00
2018-04-08T17:33:24.845Z,88.10
2018-04-08T17:35:51.950Z,88.10
2018-04-08T17:38:18.677Z,88.50
2018-04-08T17:40:47.593Z,89.90
2018-04-08T17:43:14.645Z,89.70
2018-04-08T17:45:41.700Z,90.30
2018-04-08T17:48:08.854Z,90.80
2018-04-08T17:50:36.421Z,91.40
2018-04-08T17:53:03.167Z,91.30
2018-04-08T17:55:30.834Z,91.90
2018-04-08T17:57:57.887Z,92.60
2018-04-08T18:00:24.722Z,92.80
2018-04-08T18:02:52.508Z,93.40
2018-04-08T18:05:20.078Z,93.50
2018-04-08T18:07:47.639Z,93.80
2018-04-08T18:10:14.470Z,94.20
2018-04-08T18:12:41.208Z,94.40
2018-04-08T18:15:09.206Z,94.80
2018-04-08T18:17:36.881Z,95.40
2018-04-08T18:20:04.034Z,95.30
2018-04-08T18:22:30.954Z,95.10
2018-04-08T18:24:58.856Z,95.40
2018-04-08T18:27:29.481Z,95.40
2018-04-08T18:29:56.262Z,95.60
2018-04-08T18:32:23.497Z,96.50
2018-04-08T18:34:50.343Z,97.00
2018-04-08T18:37:17.094Z,97.60
2018-04-08T18:39:43.812Z,98.00
2018-04-08T18:42:11.608Z,98.50
2018-04-08T18:44:40.161Z,98.50
2018-04-08T18:47:18.492Z,98.50
2018-04-08T18:52:31.994Z,99.90
2018-04-08T18:55:01.455Z,99.90
2018-04-08T18:57:28.779Z,99.90
2018-04-08T19:02:27.638Z,99.90
2018-04-08T19:04:57.020Z,99.90
2018-04-08T19:07:24.922Z,99.90
2018-04-08T19:09:51.702Z,99.90
2018-04-08T19:12:19.537Z,99.90
2018-04-08T19:14:53.447Z,99.90
2018-04-08T19:17:27.360Z,99.90
2018-04-08T19:19:54.617Z,99.90
2018-04-08T19:22:21.980Z,99.90
2018-04-08T19:24:50.872Z,99.90
2018-04-08T19:27:24.069Z,99.90
2018-04-08T19:29:51.122Z,99.90
2018-04-08T19:32:20.529Z,99.90
2018-04-08T19:34:50.856Z,99.90
2018-04-08T19:37:19.546Z,99.90
2018-04-08T19:39:50.490Z,99.90
2018-04-08T19:42:17.949Z,99.90
2018-04-08T19:44:44.935Z,99.90
2018-04-08T19:47:15.001Z,99.90
2018-04-08T19:49:42.887Z,99.90
2018-04-08T19:52:09.647Z,99.90
2018-04-08T19:54:36.676Z,99.90
2018-04-08T19:57:04.472Z,99.90
2018-04-08T19:59:31.425Z,99.90
2018-04-08T20:01:58.578Z,99.90
2018-04-08T20:04:26.182Z,99.90
2018-04-08T20:06:52.991Z,99.90
2018-04-08T20:09:19.738Z,99.90
2018-04-08T20:11:46.486Z,99.90
2018-04-08T20:14:13.335Z,99.90
2018-04-08T20:16:40.287Z,99.90
2018-04-08T20:19:07.218Z,99.90
2018-04-08T20:21:35.312Z,99.90
2018-04-08T20:24:02.163Z,99.90
2018-04-08T20:26:30.325Z,99.90
2018-04-08T20:28:57.372Z,99.90
2018-04-08T20:31:24.858Z,99.90
2018-04-08T20:33:51.910Z,99.90
2018-04-08T20:36:20.357Z,99.90
2018-04-08T20:38:48.169Z,99.90
2018-04-08T20:41:14.916Z,99.90
2018-04-08T20:43:41.639Z,99.90
2018-04-08T20:46:09.331Z,99.90
2018-04-08T20:48:36.177Z,99.90
2018-04-08T20:51:03.029Z,99.90
2018-04-08T20:53:30.288Z,99.90
2018-04-08T20:55:56.950Z,99.90
2018-04-08T20:58:23.982Z,99.90
2018-04-08T21:00:51.457Z,99.90
2018-04-08T21:03:18.192Z,99.90
2018-04-08T21:05:44.940Z,99.90
2018-04-08T21:08:11.975Z,99.90
2018-04-08T21:10:39.055Z,99.90
2018-04-08T21:13:06.103Z,99.90
2018-04-08T21:15:33.156Z,99.90
2018-04-08T21:17:59.887Z,99.90
2018-04-08T21:20:26.857Z,99.90
2018-04-08T21:22:54.713Z,99.90
2018-04-08T21:25:22.087Z,99.90
2018-04-08T21:27:48.831Z,99.90
2018-04-08T21:30:15.884Z,99.90
2018-04-08T21:32:42.900Z,99.90
2018-04-08T21:35:10.404Z,99.90
2018-04-08T21:37:37.238Z,99.90
2018-04-08T21:40:05.021Z,99.90
2018-04-08T21:42:32.178Z,99.90
2018-04-08T21:45:00.255Z,99.90
2018-04-08T21:47:27.001Z,99.90
2018-04-08T21:49:54.159Z,99.90
2018-04-08T21:52:20.907Z,99.90
2018-04-08T21:54:47.944Z,99.90
2018-04-08T21:57:15.112Z,99.90
2018-04-08T21:59:42.461Z,99.90
2018-04-08T22:02:11.063Z,99.90
2018-04-08T22:04:38.730Z,99.90
2018-04-08T22:07:05.578Z,99.90
2018-04-08T22:09:32.734Z,99.90
2018-04-08T22:11:59.517Z,99.90
2018-04-08T22:14:26.431Z,99.90
2018-04-08T22:16:53.198Z,99.90
2018-04-08T22:19:20.028Z,99.90
2018-04-08T22:21:47.388Z,99.90
2018-04-08T22:24:14.646Z,99.90
2018-04-08T22:26:41.783Z,99.90
2018-04-08T22:29:09.651Z,99.90
2018-04-08T22:31:37.448Z,99.90
2018-04-08T22:34:04.294Z,99.90
2018-04-08T22:36:31.961Z,99.90
2018-04-08T22:38:58.855Z,99.90
2018-04-08T22:41:25.761Z,99.90
2018-04-08T22:43:52.613Z,99.90
2018-04-08T22:46:19.767Z,99.90
2018-04-08T22:48:46.922Z,99.90
2018-04-08T22:51:13.772Z,99.90
2018-04-08T22:53:40.904Z,99.90
2018-04-08T22:56:08.776Z,99.90
2018-04-08T22:58:36.365Z,99.90
2018-04-08T23:01:03.726Z,99.90
2018-04-08T23:03:30.488Z,99.90
2018-04-08T23:05:57.735Z,99.90
2018-04-08T23:08:24.785Z,99.90
2018-04-08T23:10:51.632Z,99.90
2018-04-08T23:13:18.789Z,99.90
2018-04-08T23:15:45.638Z,99.90
2018-04-08T23:18:14.026Z,99.90
2018-04-08T23:20:41.075Z,99.90
2018-04-08T23:23:14.986Z,99.90
2018-04-08T23:25:41.825Z,99.90
2018-04-08T23:28:08.966Z,99.90
2018-04-08T23:30:36.636Z,99.90
2018-04-08T23:33:04.530Z,99.90
2018-04-08T23:35:32.437Z,99.90
2018-04-08T23:37:59.540Z,99.90
2018-04-08T23:40:27.124Z,99.90
2018-04-08T23:42:54.047Z,99.90
2018-04-08T23:45:21.846Z,99.90
2018-04-08T23:47:49.108Z,99.90
2018-04-08T23:50:16.157Z,99.90
2018-04-08T23:52:43.596Z,99.90
2018-04-08T23:55:11.391Z,99.90
2018-04-08T23:57:38.325Z,99.90
